Time;durP1;ratioP1;P1;durP2;ratioP2;P2;SDS_P1;SDS_P2;PMS_P1;PMS_P2;Temp;Humidity;BMP_temperature;BMP_pressure;BME280_temperature;BME280_humidity;BME280_pressure;Samples;Min_cycle;Max_cycle;Signal;HPM_P1;HPM_P2
2022/05/22 00:01:27;;;;;;;;;;;;;;;12.84;73.45;100626.94;5072180;28;20056;-80
2022/05/22 00:03:55;;;;;;;8.65;5.20;;;;;;;12.86;72.93;100624.63;5073294;28;19921;-79
2022/05/22 00:06:22;;;;;;;9.57;5.25;;;;;;;12.83;73.50;100626.13;5072429;28;20060;-80
2022/05/22 00:08:49;;;;;;;9.23;5.15;;;;;;;12.84;73.79;100627.75;5073671;28;20497;-79
2022/05/22 00:11:17;;;;;;;5.85;4.97;;;;;;;12.89;73.54;100619.22;5073401;28;20056;-80
2022/05/22 00:13:44;;;;;;;7.68;4.88;;;;;;;12.90;73.54;100615.25;5073353;28;20064;-80
2022/05/22 00:18:58;;;;;;;7.35;5.07;;;;;;;12.94;73.12;100610.66;5076005;28;20055;-80
2022/05/22 00:21:25;;;;;;;8.43;5.60;;;;;;;12.95;72.83;100608.69;5073104;28;20071;-80
2022/05/22 00:23:53;;;;;;;8.80;5.40;;;;;;;12.96;72.69;100602.78;5072764;28;20052;-79
2022/05/22 00:26:20;;;;;;;7.20;4.90;;;;;;;12.98;72.92;100611.66;5072686;28;20531;-79
2022/05/22 00:28:50;;;;;;;5.72;4.90;;;;;;;13.00;72.78;100617.75;5072932;28;20056;-79
2022/05/22 00:31:19;;;;;;;8.73;5.40;;;;;;;13.04;72.94;100614.28;5072629;28;20515;-79
2022/05/22 00:33:46;;;;;;;6.35;5.40;;;;;;;13.05;73.21;100599.97;5072884;28;20061;-81
2022/05/22 00:36:14;;;;;;;7.88;4.95;;;;;;;13.06;72.80;100600.78;5073417;28;20052;-79
2022/05/22 00:38:44;;;;;;;7.43;5.07;;;;;;;13.07;72.55;100599.66;5073396;28;20158;-79
2022/05/22 00:41:13;;;;;;;8.23;4.80;;;;;;;13.06;72.60;100603.59;5072754;28;20065;-79
2022/05/22 00:43:42;;;;;;;7.82;5.30;;;;;;;13.06;72.32;100610.03;5073217;28;20055;-80
2022/05/22 00:46:15;;;;;;;7.68;4.97;;;;;;;12.99;72.49;100604.91;5072877;28;20061;-80
2022/05/22 00:48:47;;;;;;;6.97;5.90;;;;;;;12.99;72.66;100604.91;5073126;28;20059;-79
2022/05/22 00:51:19;;;;;;;7.55;5.00;;;;;;;12.96;72.60;100599.16;5072831;28;20516;-79
2022/05/22 00:53:51;;;;;;;6.97;4.43;;;;;;;12.97;72.26;100598.81;5072541;28;20052;-79
2022/05/22 00:56:33;;;;;;;7.63;5.03;;;;;;;12.96;72.19;100586.00;5072849;28;20049;-80
2022/05/22 00:59:06;;;;;;;8.52;4.45;;;;;;;12.90;72.34;100581.72;5072993;28;20052;-80
2022/05/22 01:01:37;;;;;;;5.43;4.28;;;;;;;12.88;72.30;100588.78;5072968;28;20064;-79
2022/05/22 01:04:10;;;;;;;8.10;5.07;;;;;;;12.83;72.48;100586.97;5072611;28;20055;-78
2022/05/22 01:06:38;;;;;;;6.05;4.65;;;;;;;12.82;72.13;100584.50;5072432;28;20063;-79
2022/05/22 01:09:05;;;;;;;7.78;4.70;;;;;;;12.76;72.17;100581.84;5072838;28;20052;-79
2022/05/22 01:11:37;;;;;;;7.03;5.30;;;;;;;12.74;72.49;100588.91;5072030;28;20515;-79
2022/05/22 01:14:07;;;;;;;6.85;5.25;;;;;;;12.71;72.57;100582.03;5075460;28;20067;-79
2022/05/22 01:16:38;;;;;;;8.02;5.30;;;;;;;12.67;72.76;100588.59;5076698;28;20063;-79
2022/05/22 01:19:13;;;;;;;7.63;5.30;;;;;;;12.66;72.42;100584.97;5076443;28;20084;-79
2022/05/22 01:21:42;;;;;;;6.40;5.13;;;;;;;12.64;72.27;100586.44;5076493;28;20052;-79
2022/05/22 01:24:10;;;;;;;6.83;4.93;;;;;;;12.61;72.80;100578.72;5076285;28;20400;-78
2022/05/22 01:26:39;;;;;;;8.85;5.47;;;;;;;12.54;73.13;100579.19;5075954;28;21023;-79
2022/05/22 01:29:09;;;;;;;8.35;5.78;;;;;;;12.52;73.21;100573.94;5076324;28;20060;-79
2022/05/22 01:31:39;;;;;;;8.10;5.70;;;;;;;12.45;73.17;100578.34;5076258;28;20063;-80
2022/05/22 01:34:07;;;;;;;8.18;5.35;;;;;;;12.48;72.97;100572.94;5076462;28;20057;-78
2022/05/22 01:36:34;;;;;;;7.15;5.65;;;;;;;12.40;73.48;100562.56;5075733;28;20048;-79
2022/05/22 01:39:02;;;;;;;8.10;5.22;;;;;;;12.38;73.30;100565.66;5076296;28;20067;-79
2022/05/22 01:41:31;;;;;;;7.97;5.40;;;;;;;12.36;73.26;100561.56;5075830;28;20061;-79
2022/05/22 01:43:58;;;;;;;6.90;5.17;;;;;;;12.32;72.99;100563.34;5075876;28;20053;-78
2022/05/22 01:46:26;;;;;;;8.57;6.13;;;;;;;12.25;73.46;100561.03;5075561;28;20474;-78
2022/05/22 01:48:56;;;;;;;8.32;6.28;;;;;;;12.19;73.50;100565.94;5075349;28;20052;-78
2022/05/22 01:51:24;;;;;;;9.52;6.40;;;;;;;12.13;73.96;100564.44;5075873;28;20052;-78
2022/05/22 01:53:53;;;;;;;8.60;5.50;;;;;;;12.10;73.84;100570.69;5076009;28;20059;-78
2022/05/22 01:56:21;;;;;;;7.43;6.00;;;;;;;12.07;73.87;100571.31;5075568;28;20075;-79
2022/05/22 01:58:50;;;;;;;6.93;5.68;;;;;;;12.02;74.03;100568.66;5075667;28;20480;-79
2022/05/22 02:01:18;;;;;;;10.98;6.85;;;;;;;11.95;74.20;100577.50;5075453;28;20052;-79
2022/05/22 02:03:45;;;;;;;11.85;6.72;;;;;;;11.95;74.19;100579.47;5074925;28;20071;-79
2022/05/22 02:06:13;;;;;;;11.55;7.30;;;;;;;11.90;74.58;100577.63;5075617;28;20056;-79
2022/05/22 02:08:39;;;;;;;8.80;7.30;;;;;;;11.89;74.29;100575.19;5076020;28;20052;-79
2022/05/22 02:11:08;;;;;;;7.30;5.70;;;;;;;11.86;74.52;100578.56;5075481;28;20068;-79
2022/05/22 02:13:37;;;;;;;9.30;6.70;;;;;;;11.86;74.40;100581.34;5075702;28;20400;-79
2022/05/22 02:16:06;;;;;;;11.07;5.85;;;;;;;11.82;75.02;100578.38;5075180;28;20052;-80
2022/05/22 02:18:34;;;;;;;7.82;5.88;;;;;;;11.78;74.92;100577.41;5075446;28;20061;-79
2022/05/22 02:21:02;;;;;;;7.63;5.80;;;;;;;11.74;74.96;100574.41;5074773;28;20056;-79
2022/05/22 02:23:32;;;;;;;8.88;6.80;;;;;;;11.71;75.06;100566.66;5075329;28;20048;-79
2022/05/22 02:26:00;;;;;;;9.50;6.55;;;;;;;11.69;74.99;100582.09;5073635;28;20068;-79
2022/05/22 02:28:31;;;;;;;8.40;5.90;;;;;;;11.65;74.95;100565.16;5074906;28;20060;-79
2022/05/22 02:31:01;;;;;;;7.80;5.20;;;;;;;11.65;74.35;100554.00;5075232;28;20061;-79
2022/05/22 02:33:30;;;;;;;8.90;5.47;;;;;;;11.61;74.43;100547.41;5074541;28;20053;-79
2022/05/22 02:35:57;;;;;;;7.05;5.63;;;;;;;11.59;74.37;100544.13;5074980;28;20416;-79
2022/05/22 02:38:24;;;;;;;8.27;5.80;;;;;;;11.51;74.12;100540.16;5074522;28;20063;-79
2022/05/22 02:40:52;;;;;;;8.00;5.10;;;;;;;11.47;74.55;100535.53;5074775;28;20421;-79
2022/05/22 02:43:19;;;;;;;10.23;5.35;;;;;;;11.45;74.86;100521.91;5074671;28;20049;-79
2022/05/22 02:45:47;;;;;;;7.50;5.28;;;;;;;11.47;74.83;100525.19;5074790;28;20414;-79
2022/05/22 02:48:14;;;;;;;7.85;5.55;;;;;;;11.46;74.67;100522.72;5074142;28;20064;-79
2022/05/22 02:50:46;;;;;;;8.75;5.75;;;;;;;11.43;75.00;100513.03;5074354;28;20056;-78
2022/05/22 02:53:16;;;;;;;8.07;6.18;;;;;;;11.39;74.78;100506.44;5074550;28;20119;-78
2022/05/22 02:55:44;;;;;;;7.97;5.95;;;;;;;11.36;74.66;100505.13;5074161;28;20067;-78
2022/05/22 02:58:12;;;;;;;9.02;6.30;;;;;;;11.30;74.94;100503.59;5074991;28;20053;-80
2022/05/22 03:00:39;;;;;;;6.63;5.68;;;;;;;11.32;74.99;100498.53;5074920;28;20063;-79
2022/05/22 03:03:06;;;;;;;8.55;5.88;;;;;;;11.30;75.19;100486.06;5074506;28;20057;-80
2022/05/22 03:08:20;;;;;;;9.10;5.68;;;;;;;11.29;75.35;100495.53;5078819;28;20068;-79
2022/05/22 03:10:48;;;;;;;11.50;5.70;;;;;;;11.25;75.50;100500.94;5073884;28;20056;-79
2022/05/22 03:13:15;;;;;;;8.48;5.70;;;;;;;11.26;76.33;100513.75;5074459;28;20400;-79
2022/05/22 03:15:46;;;;;;;9.38;5.65;;;;;;;11.30;75.76;100498.03;5074576;28;20056;-79
2022/05/22 03:18:13;;;;;;;8.73;5.47;;;;;;;11.28;75.04;100500.31;5073646;28;20053;-79
2022/05/22 03:20:41;;;;;;;10.40;5.85;;;;;;;11.29;75.22;100506.69;5074000;28;20052;-79
2022/05/22 03:23:11;;;;;;;9.32;5.55;;;;;;;11.28;75.09;100517.03;5074289;28;20086;-79
2022/05/22 03:25:40;;;;;;;8.63;5.60;;;;;;;11.30;75.26;100509.19;5074010;28;20067;-80
2022/05/22 03:28:08;;;;;;;9.00;5.80;;;;;;;11.30;75.86;100509.19;5074044;28;20056;-80
2022/05/22 03:30:35;;;;;;;7.88;5.43;;;;;;;11.36;75.81;100507.09;5073974;28;20416;-79
2022/05/22 03:33:02;;;;;;;6.25;5.07;;;;;;;11.38;75.22;100500.03;5074460;28;20052;-79
2022/05/22 03:35:30;;;;;;;8.07;6.15;;;;;;;11.32;74.93;100504.09;5073770;28;20511;-79
2022/05/22 03:37:57;;;;;;;6.15;4.75;;;;;;;11.41;74.99;100506.94;5073973;28;20052;-79
2022/05/22 03:40:25;;;;;;;7.07;5.00;;;;;;;11.41;74.91;100504.16;5073351;28;20056;-79
2022/05/22 03:42:54;;;;;;;9.43;5.32;;;;;;;11.45;74.84;100505.16;5073532;28;20052;-79
2022/05/22 03:45:22;;;;;;;7.43;5.10;;;;;;;11.51;74.84;100511.44;5073509;28;20060;-80
2022/05/22 03:47:50;;;;;;;8.45;5.50;;;;;;;11.54;74.98;100505.19;5073662;28;20499;-79
2022/05/22 03:50:18;;;;;;;5.57;4.18;;;;;;;11.62;74.52;100495.25;5072400;28;20052;-80
2022/05/22 03:52:48;;;;;;;7.82;5.30;;;;;;;11.65;74.23;100492.63;5073650;28;20071;-79
2022/05/22 03:55:16;;;;;;;5.75;5.00;;;;;;;11.67;74.41;100487.53;5073510;28;20056;-80
2022/05/22 03:57:46;;;;;;;6.68;4.80;;;;;;;11.70;74.45;100486.91;5073846;28;20052;-80
2022/05/22 04:00:18;;;;;;;7.40;4.97;;;;;;;11.84;74.24;100491.56;5073643;28;20049;-79
2022/05/22 04:02:49;;;;;;;8.27;5.43;;;;;;;11.90;74.28;100493.91;5073508;28;20053;-80
2022/05/22 04:05:16;;;;;;;6.32;4.97;;;;;;;11.98;74.08;100492.28;5072729;28;20056;-80
2022/05/22 04:07:46;;;;;;;8.90;5.80;;;;;;;12.02;73.94;100482.13;5073024;28;20095;-79
2022/05/22 04:10:14;;;;;;;;;;;;;;;12.03;73.89;100477.34;5073491;28;20062;-79
2022/05/22 04:12:43;;;;;;;9.00;6.13;;;;;;;12.08;73.78;100480.00;5073108;28;19927;-79
2022/05/22 04:15:13;;;;;;;7.65;6.13;;;;;;;12.11;73.83;100477.38;5070984;28;20519;-79
2022/05/22 04:17:42;;;;;;;8.57;6.18;;;;;;;12.25;73.69;100474.47;5073000;28;20057;-79
2022/05/22 04:20:10;;;;;;;7.05;6.03;;;;;;;12.36;73.86;100477.75;5073094;28;20489;-80
2022/05/22 04:25:11;;;;;;;8.55;6.70;;;;;;;12.37;73.39;100474.66;5072931;28;20063;-80
2022/05/22 04:25:25;;;;;;;6.07;5.22;;;;;;;12.45;73.28;100469.38;5072617;28;20059;-81
2022/05/22 04:27:53;;;;;;;11.85;6.10;;;;;;;12.51;73.44;100465.28;5073010;28;20052;-80
2022/05/22 04:30:21;;;;;;;9.63;5.55;;;;;;;12.54;73.27;100470.22;5072528;28;20056;-80
2022/05/22 04:32:52;;;;;;;7.93;5.93;;;;;;;12.55;72.90;100469.06;5073019;28;20052;-80
2022/05/22 04:35:21;;;;;;;7.25;5.82;;;;;;;12.62;72.64;100465.78;5073298;28;20524;-80
2022/05/22 04:37:51;;;;;;;8.75;5.80;;;;;;;12.65;73.05;100462.34;5073491;28;20052;-80
2022/05/22 04:40:19;;;;;;;7.53;5.63;;;;;;;12.64;72.53;100461.53;5072451;28;20121;-80
2022/05/22 04:42:46;;;;;;;9.30;5.90;;;;;;;12.66;72.50;100463.97;5072518;28;20057;-80
2022/05/22 04:45:14;;;;;;;8.57;6.30;;;;;;;12.66;72.47;100464.81;5072658;28;20052;-80
2022/05/22 04:47:43;;;;;;;6.97;6.07;;;;;;;12.70;72.28;100471.38;5071938;28;20534;-80
2022/05/22 04:50:13;;;;;;;11.18;7.22;;;;;;;12.75;71.57;100484.38;5073208;28;20057;-80
2022/05/22 04:52:41;;;;;;;7.22;5.80;;;;;;;12.70;71.72;100487.31;5072070;28;20052;-80
2022/05/22 04:55:09;;;;;;;9.82;5.25;;;;;;;12.77;71.07;100476.47;5073148;28;20060;-80
2022/05/22 04:57:39;;;;;;;7.28;5.07;;;;;;;12.79;70.93;100482.56;5072185;28;20063;-80
2022/05/22 05:00:10;;;;;;;8.90;5.43;;;;;;;12.85;70.56;100472.03;5072733;28;20515;-80
2022/05/22 05:02:37;;;;;;;8.48;5.80;;;;;;;12.88;70.79;100475.00;5052487;28;20053;-80
2022/05/22 05:05:08;;;;;;;9.70;6.38;;;;;;;12.93;71.17;100474.81;5052585;28;20376;-80
2022/05/22 05:07:39;;;;;;;9.20;6.22;;;;;;;13.08;71.05;100475.44;5058390;28;20053;-80
2022/05/22 05:10:08;;;;;;;6.85;5.20;;;;;;;13.10;70.61;100485.19;5052704;28;20049;-80
2022/05/22 05:12:38;;;;;;;11.05;6.50;;;;;;;13.26;70.56;100479.06;5052328;28;20060;-80
2022/05/22 05:15:08;;;;;;;8.38;6.45;;;;;;;13.31;70.05;100490.94;5052560;28;20056;-81
2022/05/22 05:17:35;;;;;;;7.88;5.80;;;;;;;13.42;70.10;100473.75;5052078;28;20053;-80
2022/05/22 05:20:03;;;;;;;9.40;6.20;;;;;;;13.61;69.82;100477.00;5052674;28;20072;-80
2022/05/22 05:22:31;;;;;;;7.93;6.38;;;;;;;13.83;69.64;100472.31;5052380;28;20053;-81
2022/05/22 05:25:00;;;;;;;8.80;7.10;;;;;;;14.00;69.17;100481.44;5052855;28;20055;-80
2022/05/22 05:27:28;;;;;;;7.50;5.55;;;;;;;14.15;69.13;100484.81;5052310;28;20072;-80
2022/05/22 05:29:55;;;;;;;7.65;6.55;;;;;;;14.32;68.74;100486.69;5053029;28;20045;-80
2022/05/22 05:32:24;;;;;;;9.27;6.30;;;;;;;14.47;68.08;100471.25;5052970;28;20049;-80
2022/05/22 05:34:57;;;;;;;7.65;6.20;;;;;;;14.68;67.67;100468.47;5052478;28;20053;-80
2022/05/22 05:37:24;;;;;;;9.02;6.90;;;;;;;14.80;67.12;100460.97;5052537;28;20417;-81
2022/05/22 05:39:52;;;;;;;10.75;7.90;;;;;;;14.85;66.24;100457.13;5052471;28;20203;-80
2022/05/22 05:42:23;;;;;;;9.05;6.80;;;;;;;14.83;66.96;100462.28;5052078;28;20068;-80
2022/05/22 05:44:51;;;;;;;8.93;6.68;;;;;;;14.93;66.68;100464.66;5052354;28;20053;-81
2022/05/22 05:47:18;;;;;;;8.15;6.30;;;;;;;15.00;66.26;100458.47;5052606;28;20060;-80
2022/05/22 05:49:45;;;;;;;7.72;6.55;;;;;;;15.12;65.99;100449.28;5052230;28;20065;-80
2022/05/22 05:52:13;;;;;;;9.73;7.85;;;;;;;15.23;65.63;100456.09;5052799;28;20511;-80
2022/05/22 05:54:40;;;;;;;9.70;6.82;;;;;;;15.32;65.83;100456.00;5052212;28;20524;-80
2022/05/22 05:57:07;;;;;;;7.60;5.88;;;;;;;15.42;65.28;100449.94;5052226;28;20057;-81
2022/05/22 05:59:36;;;;;;;7.53;6.22;;;;;;;15.50;65.09;100448.22;5052862;28;20107;-80
2022/05/22 06:02:04;;;;;;;7.90;6.33;;;;;;;15.40;65.26;100444.69;5071003;28;20053;-81
2022/05/22 06:04:31;;;;;;;7.60;6.10;;;;;;;15.47;65.60;100444.09;5076495;28;20056;-80
2022/05/22 06:06:58;;;;;;;8.35;6.45;;;;;;;15.54;65.20;100443.53;5075382;28;20052;-80
2022/05/22 06:09:26;;;;;;;8.20;6.53;;;;;;;15.52;64.75;100445.88;5075645;28;20424;-80
2022/05/22 06:11:55;;;;;;;7.70;6.60;;;;;;;15.58;64.71;100450.06;5074891;28;20064;-80
2022/05/22 06:14:22;;;;;;;7.68;6.53;;;;;;;15.68;64.64;100448.81;5075783;28;20068;-80
2022/05/22 06:16:51;;;;;;;8.18;6.65;;;;;;;15.66;65.37;100446.34;5075935;28;20067;-80
2022/05/22 06:19:53;;;;;;;8.15;6.65;;;;;;;15.79;65.42;100441.59;5075855;28;20484;-81
2022/05/22 06:22:07;;;;;;;8.88;6.85;;;;;;;15.92;64.78;100442.44;5074945;28;20053;-80
2022/05/22 06:24:35;;;;;;;9.20;6.63;;;;;;;15.92;64.35;100443.25;5074374;28;20056;-80
2022/05/22 06:27:03;;;;;;;8.40;6.60;;;;;;;15.91;64.35;100449.22;5075336;28;20473;-80
2022/05/22 06:29:31;;;;;;;9.63;7.70;;;;;;;16.17;64.02;100460.09;5075279;28;20060;-81
2022/05/22 06:31:59;;;;;;;7.18;6.30;;;;;;;16.27;62.87;100453.16;5075426;28;20052;-80
2022/05/22 06:34:27;;;;;;;9.07;6.70;;;;;;;16.46;62.37;100458.97;5075511;28;20052;-80
2022/05/22 06:36:57;;;;;;;9.40;6.90;;;;;;;16.66;61.47;100462.81;5074888;28;20052;-81
2022/05/22 06:42:14;;;;;;;8.27;6.43;;;;;;;17.13;60.06;100455.72;5080816;28;20060;-81
2022/05/22 06:44:41;;;;;;;9.82;6.70;;;;;;;17.36;59.82;100453.13;5074943;28;20049;-81
2022/05/22 06:47:11;;;;;;;8.55;6.07;;;;;;;17.58;59.49;100465.81;5074854;28;20048;-81
2022/05/22 06:49:38;;;;;;;9.40;7.18;;;;;;;17.74;58.89;100454.53;5074817;28;20060;-81
2022/05/22 06:52:07;;;;;;;8.77;6.78;;;;;;;17.85;58.28;100450.84;5074427;28;20060;-81
2022/05/22 06:54:34;;;;;;;7.82;5.53;;;;;;;17.86;58.10;100443.19;5074302;28;20059;-81
2022/05/22 06:57:01;;;;;;;9.98;6.35;;;;;;;17.98;57.98;100447.94;5074358;28;20071;-81
2022/05/22 06:59:29;;;;;;;9.10;6.07;;;;;;;18.08;57.11;100447.38;5074577;28;20060;-80
2022/05/22 07:02:00;;;;;;;10.35;6.47;;;;;;;18.13;56.27;100438.63;5073843;28;20059;-80
2022/05/22 07:04:30;;;;;;;10.55;6.60;;;;;;;18.31;56.56;100444.69;5074604;28;20060;-80
2022/05/22 07:06:58;;;;;;;8.27;6.00;;;;;;;18.47;55.81;100450.25;5074707;28;20067;-80
2022/05/22 07:09:25;;;;;;;8.98;6.03;;;;;;;18.54;55.85;100447.63;5074760;28;20053;-80
2022/05/22 07:11:54;;;;;;;9.82;6.03;;;;;;;18.63;55.52;100445.38;5073684;28;20057;-80
2022/05/22 07:14:23;;;;;;;8.15;5.90;;;;;;;18.82;55.50;100455.91;5074601;28;20056;-80
2022/05/22 07:16:51;;;;;;;9.98;6.13;;;;;;;18.97;54.86;100457.00;5073898;28;20052;-80
2022/05/22 07:19:19;;;;;;;8.15;5.63;;;;;;;18.94;54.76;100446.47;5074670;28;20504;-80
2022/05/22 07:21:51;;;;;;;7.50;5.40;;;;;;;18.92;54.41;100440.38;5073713;28;20420;-80
2022/05/22 07:24:18;;;;;;;9.02;6.05;;;;;;;19.08;53.87;100439.47;5075607;28;20072;-81
2022/05/22 07:26:46;;;;;;;8.25;5.57;;;;;;;19.01;54.17;100446.59;5073896;28;20057;-81
2022/05/22 07:29:13;;;;;;;8.00;5.25;;;;;;;19.24;53.84;100448.66;5073897;28;20503;-80
2022/05/22 07:31:42;;;;;;;6.45;5.30;;;;;;;19.41;53.90;100441.72;5073349;28;20057;-81
2022/05/22 07:34:09;;;;;;;6.70;5.15;;;;;;;19.66;53.54;100450.63;5074337;28;20385;-80
2022/05/22 07:36:37;;;;;;;8.07;4.85;;;;;;;19.96;53.00;100439.44;5073542;28;20056;-80
2022/05/22 07:39:06;;;;;;;6.85;4.80;;;;;;;20.44;51.70;100442.59;5074256;28;20052;-80
2022/05/22 07:41:35;;;;;;;10.45;5.13;;;;;;;21.19;49.50;100441.97;5073600;28;20048;-80
2022/05/22 07:44:02;;;;;;;8.45;4.95;;;;;;;21.92;47.70;100427.28;5074333;28;20404;-80
2022/05/22 07:46:29;;;;;;;7.97;4.60;;;;;;;22.47;46.29;100425.25;5074310;28;20056;-80
2022/05/22 07:48:56;;;;;;;8.60;4.82;;;;;;;23.32;43.93;100423.16;5074038;28;20385;-80
2022/05/22 07:51:24;;;;;;;7.40;4.45;;;;;;;23.96;42.41;100425.25;5073738;28;20057;-81
2022/05/22 07:53:52;;;;;;;7.32;4.60;;;;;;;24.84;40.61;100414.09;5073913;28;20052;-81
2022/05/22 07:56:22;;;;;;;8.20;4.88;;;;;;;25.67;38.98;100411.53;5073771;28;20053;-81
2022/05/22 07:58:50;;;;;;;7.85;4.07;;;;;;;26.71;37.13;100404.84;5073097;28;20056;-81
2022/05/22 08:01:18;;;;;;;7.20;4.85;;;;;;;26.98;35.00;100409.78;5073441;28;20060;-80
2022/05/22 08:03:45;;;;;;;6.38;3.95;;;;;;;28.09;33.93;100404.41;5072700;28;20060;-81
2022/05/22 08:06:15;;;;;;;6.78;3.80;;;;;;;28.76;34.24;100404.34;5073096;28;20496;-81
2022/05/22 08:08:44;;;;;;;9.45;4.50;;;;;;;29.42;32.42;100407.41;5073175;28;20067;-81
2022/05/22 08:11:11;;;;;;;6.78;3.75;;;;;;;30.06;31.40;100402.97;5073375;28;20067;-81
2022/05/22 08:13:40;;;;;;;6.07;3.78;;;;;;;30.37;30.09;100398.91;5073288;28;20052;-81
2022/05/22 08:16:07;;;;;;;;;;;;;;;30.34;29.65;100395.66;5074017;28;20056;-81
2022/05/22 08:18:38;;;;;;;6.22;4.30;;;;;;;31.04;28.67;100401.88;5072689;28;19920;-81
2022/05/22 08:21:06;;;;;;;7.60;4.18;;;;;;;32.27;27.72;100393.69;5073276;28;20052;-82
2022/05/22 08:23:33;;;;;;;5.93;3.47;;;;;;;33.32;26.04;100400.03;5072230;28;20052;-82
2022/05/22 08:26:04;;;;;;;8.35;4.10;;;;;;;33.32;25.36;100397.16;5073128;28;20048;-81
2022/05/22 08:28:31;;;;;;;6.72;3.92;;;;;;;34.74;23.26;100388.59;5073042;28;20079;-81
2022/05/22 08:31:04;;;;;;;7.85;4.03;;;;;;;35.10;22.71;100374.53;5072197;28;20060;-81
2022/05/22 08:33:34;;;;;;;7.20;3.72;;;;;;;35.92;22.40;100369.63;5073179;28;20067;-82
2022/05/22 08:36:04;;;;;;;14.50;3.75;;;;;;;36.55;20.90;100369.63;5072829;28;20496;-81
2022/05/22 08:38:32;;;;;;;7.30;3.85;;;;;;;36.61;20.52;100363.94;5073127;28;20052;-81
2022/05/22 08:41:11;;;;;;;8.67;3.70;;;;;;;37.03;19.79;100371.56;5072525;28;20052;-81
2022/05/22 08:43:48;;;;;;;5.32;3.38;;;;;;;37.46;19.95;100366.97;5072603;28;20060;-82
2022/05/22 08:46:28;;;;;;;6.55;3.30;;;;;;;38.46;19.54;100356.44;5072901;28;20064;-82
2022/05/22 08:48:57;;;;;;;5.25;3.28;;;;;;;38.44;17.75;100347.41;5072864;28;20056;-83
2022/05/22 08:51:38;;;;;;;5.40;3.40;;;;;;;38.86;18.03;100352.63;5073108;28;20057;-82
2022/05/22 08:54:14;;;;;;;6.07;3.58;;;;;;;39.09;17.15;100353.63;5075429;28;20052;-82
2022/05/22 08:59:32;;;;;;;6.13;3.75;;;;;;;38.34;17.32;100352.59;5074248;28;20067;-83
2022/05/22 09:02:15;;;;;;;5.60;3.33;;;;;;;38.46;17.72;100354.31;5071863;28;20052;-82
2022/05/22 09:04:47;;;;;;;7.25;3.97;;;;;;;38.54;17.96;100343.84;5073028;28;20065;-82
2022/05/22 09:07:21;;;;;;;6.00;3.60;;;;;;;38.85;18.00;100338.56;5072676;28;20057;-82
2022/05/22 09:09:54;;;;;;;6.25;3.80;;;;;;;38.81;18.46;100340.91;5071823;28;20057;-82
2022/05/22 09:12:42;;;;;;;7.28;3.55;;;;;;;39.55;17.34;100332.25;5072625;28;20524;-83
2022/05/22 09:15:15;;;;;;;5.57;3.40;;;;;;;39.40;18.77;100337.47;5072522;28;20488;-82
2022/05/22 09:17:51;;;;;;;7.20;4.05;;;;;;;40.47;17.02;100331.34;5072361;28;20060;-83
2022/05/22 09:20:21;;;;;;;5.40;3.70;;;;;;;40.24;16.90;100327.53;5072443;28;20057;-83
2022/05/22 09:23:06;;;;;;;4.82;3.38;;;;;;;40.54;16.01;100322.84;5071898;28;20067;-83
2022/05/22 09:25:44;;;;;;;4.90;3.35;;;;;;;39.75;16.81;100321.75;5072539;28;20083;-83
2022/05/22 09:28:21;;;;;;;9.10;3.70;;;;;;;39.55;17.57;100313.97;5072028;28;20053;-83
2022/05/22 09:31:02;;;;;;;7.65;3.70;;;;;;;40.16;16.74;100325.13;5072023;28;20057;-82
2022/05/22 09:33:39;;;;;;;7.85;4.25;;;;;;;40.03;16.63;100312.38;5072781;28;20060;-83
2022/05/22 09:36:18;;;;;;;7.37;4.50;;;;;;;39.97;16.83;100310.22;5082759;28;20048;-83
2022/05/22 09:39:01;;;;;;;4.70;3.17;;;;;;;41.15;16.17;100300.84;5075460;28;20056;-83
2022/05/22 09:41:48;;;;;;;7.53;3.80;;;;;;;41.47;16.09;100306.34;5082514;28;20052;-83
2022/05/22 09:44:48;;;;;;;7.07;3.50;;;;;;;41.72;15.58;100291.94;5076473;28;20404;-83
2022/05/22 09:47:29;;;;;;;5.93;3.38;;;;;;;41.45;16.24;100300.25;5076335;28;20048;-83
2022/05/22 09:50:21;;;;;;;8.68;4.10;;;;;;;41.90;14.49;100293.47;5076071;28;20056;-82
2022/05/22 09:52:58;;;;;;;6.90;3.45;;;;;;;41.87;16.36;100289.47;5075549;28;20060;-82
2022/05/22 09:55:55;;;;;;;7.47;4.03;;;;;;;41.35;14.73;100290.16;5076054;28;20079;-82
2022/05/22 09:58:54;;;;;;;6.65;3.50;;;;;;;41.11;16.09;100287.81;5041264;28;20060;-82
2022/05/22 10:01:28;;;;;;;5.82;3.97;;;;;;;41.71;14.82;100287.44;5079286;28;20067;-82
2022/05/22 10:04:22;;;;;;;7.97;4.25;;;;;;;41.76;14.89;100284.47;5075348;28;20068;-82
2022/05/22 10:07:00;;;;;;;9.95;4.57;;;;;;;41.41;14.74;100288.03;5075584;28;20053;-82
2022/05/22 10:09:40;;;;;;;5.13;3.60;;;;;;;42.48;15.28;100283.84;5075725;28;20060;-82
2022/05/22 10:12:23;;;;;;;5.32;3.40;;;;;;;42.69;14.35;100284.22;5075376;28;20061;-82
2022/05/22 10:15:03;;;;;;;5.15;3.10;;;;;;;44.01;13.64;100283.88;5075392;28;20056;-82
2022/05/22 10:17:49;;;;;;;4.85;3.10;;;;;;;44.54;13.03;100281.28;5074958;28;20048;-82
2022/05/22 10:20:23;;;;;;;5.75;4.20;;;;;;;44.04;12.40;100287.84;5074953;28;20052;-83
2022/05/22 10:23:02;;;;;;;6.82;3.70;;;;;;;44.09;12.20;100289.94;5074782;28;20059;-82
2022/05/22 10:25:47;;;;;;;6.85;3.40;;;;;;;43.83;13.06;100291.34;5074966;28;20405;-82
2022/05/22 10:28:19;;;;;;;6.20;3.70;;;;;;;42.78;13.38;100280.94;5075505;28;20079;-82
2022/05/22 10:30:53;;;;;;;5.70;3.58;;;;;;;42.76;14.01;100281.50;5074646;28;20067;-82
2022/05/22 10:33:25;;;;;;;3.97;3.08;;;;;;;43.69;13.74;100277.91;5074908;28;20472;-82
2022/05/22 10:35:58;;;;;;;6.55;3.75;;;;;;;43.70;13.41;100271.50;5074700;28;20065;-82
2022/05/22 10:38:32;;;;;;;5.53;3.40;;;;;;;43.91;13.30;100277.63;5074487;28;20052;-82
2022/05/22 10:44:07;;;;;;;6.32;4.03;;;;;;;44.95;11.84;100273.38;5077179;28;20063;-82
2022/05/22 10:46:45;;;;;;;7.68;4.00;;;;;;;43.51;13.10;100276.50;5074100;28;20060;-82
2022/05/22 10:49:13;;;;;;;6.72;3.70;;;;;;;42.68;13.96;100273.84;5075048;28;20056;-82
2022/05/22 10:51:40;;;;;;;6.18;3.95;;;;;;;42.84;13.73;100257.47;5074564;28;20540;-82
2022/05/22 10:54:09;;;;;;;7.97;4.10;;;;;;;43.03;13.75;100263.41;5074786;28;20044;-82
2022/05/22 10:56:37;;;;;;;8.10;4.43;;;;;;;43.15;13.37;100262.75;5074723;28;20048;-83
2022/05/22 10:59:06;;;;;;;10.25;4.25;;;;;;;42.93;14.21;100260.06;5074300;28;20063;-82
2022/05/22 11:01:36;;;;;;;6.78;3.38;;;;;;;44.10;12.76;100265.91;5073796;28;20056;-82
2022/05/22 11:04:07;;;;;;;7.65;3.67;;;;;;;43.70;13.81;100267.75;5073915;28;20060;-82
2022/05/22 11:06:37;;;;;;;6.25;3.40;;;;;;;42.58;13.17;100259.53;5074995;28;20048;-82
2022/05/22 11:09:06;;;;;;;5.50;3.35;;;;;;;40.41;14.30;100251.72;5073955;28;20064;-82
2022/05/22 11:11:39;;;;;;;6.55;3.53;;;;;;;40.04;14.95;100255.59;5073874;28;20052;-82
2022/05/22 11:14:10;;;;;;;6.40;3.67;;;;;;;38.94;16.04;100254.72;5074293;28;20056;-81
2022/05/22 11:16:37;;;;;;;5.47;3.75;;;;;;;37.16;18.17;100250.88;5074054;28;20067;-81
2022/05/22 11:19:09;;;;;;;5.20;3.40;;;;;;;35.84;18.97;100252.47;5074150;28;20059;-81
2022/05/22 11:21:50;;;;;;;6.10;3.35;;;;;;;35.08;20.45;100244.72;5074014;28;20056;-81
2022/05/22 11:24:34;;;;;;;9.52;3.63;;;;;;;34.06;21.38;100237.59;5074792;28;20067;-81
2022/05/22 11:27:16;;;;;;;6.03;3.50;;;;;;;33.38;22.54;100238.53;5073623;28;20056;-81
2022/05/22 11:30:01;;;;;;;6.28;3.83;;;;;;;34.56;21.12;100232.38;5074650;28;20059;-81
2022/05/22 11:32:42;;;;;;;7.53;3.42;;;;;;;36.06;19.58;100221.00;5073824;28;20079;-81
2022/05/22 11:35:33;;;;;;;7.90;3.92;;;;;;;35.88;18.79;100224.09;5080079;28;20056;-81
2022/05/22 11:38:13;;;;;;;4.70;3.08;;;;;;;35.80;19.73;100217.88;5073255;28;20408;-80
2022/05/22 11:40:47;;;;;;;7.28;3.97;;;;;;;36.07;19.40;100213.09;5073627;28;20056;-81
2022/05/22 11:43:44;;;;;;;7.45;3.75;;;;;;;37.02;19.36;100208.13;5073609;28;20053;-81
2022/05/22 11:46:28;;;;;;;5.32;3.50;;;;;;;37.95;17.49;100201.69;5073170;28;20056;-81
2022/05/22 11:49:12;;;;;;;7.47;3.72;;;;;;;38.88;16.51;100204.38;5073766;28;20063;-81
2022/05/22 11:52:10;;;;;;;7.05;3.55;;;;;;;39.51;17.07;100196.81;5072195;28;20053;-81
2022/05/22 11:54:54;;;;;;;7.90;3.65;;;;;;;40.79;15.57;100180.03;5073566;28;20142;-81
2022/05/22 11:57:32;;;;;;;4.85;2.90;;;;;;;41.93;15.68;100181.19;5073040;28;20059;-81